Time;durP1;ratioP1;P1;durP2;ratioP2;P2;SDS_P1;SDS_P2;PMS_P1;PMS_P2;Temp;Humidity;BMP_temperature;BMP_pressure;BME280_temperature;BME280_humidity;BME280_pressure;Samples;Min_cycle;Max_cycle;Signal;HPM_P1;HPM_P2
2022/06/02 04:30:54;;;;;;;23.30;16.13;;;10.50;99.90;;;;;;5838084;23;20513;-70
2022/06/02 04:33:32;;;;;;;22.40;14.30;;;10.50;99.90;;;;;;4934713;29;20434;-70
2022/06/02 04:36:49;;;;;;;20.60;14.37;;;10.60;99.90;;;;;;4938707;29;20464;-72
2022/06/02 04:39:28;;;;;;;20.47;14.70;;;10.60;99.90;;;;;;4906070;29;20482;-69
2022/06/02 04:42:14;;;;;;;17.67;14.23;;;10.60;99.90;;;;;;4938496;29;20467;-68
2022/06/02 04:45:00;;;;;;;26.10;16.43;;;10.70;99.90;;;;;;4938304;29;20435;-69
2022/06/02 04:47:29;;;;;;;21.80;15.87;;;10.70;99.90;;;;;;4938646;29;20427;-69
2022/06/02 04:50:27;;;;;;;23.57;15.60;;;10.80;99.90;;;;;;4938387;29;20523;-69
2022/06/02 04:53:16;;;;;;;18.70;15.90;;;10.80;99.90;;;;;;4938574;29;20790;-69
2022/06/02 04:56:12;;;;;;;25.00;16.50;;;10.90;99.90;;;;;;4938331;29;20458;-68
2022/06/02 04:59:07;;;;;;;24.30;17.37;;;11.00;99.90;;;;;;4937554;29;20505;-69
2022/06/02 05:01:55;;;;;;;21.97;15.33;;;11.00;99.90;;;;;;4938193;29;20473;-68
2022/06/02 05:04:36;;;;;;;24.37;16.03;;;11.10;99.90;;;;;;4946681;29;20485;-68
2022/06/02 05:07:16;;;;;;;23.13;15.87;;;11.20;99.90;;;;;;4949289;29;20437;-68
2022/06/02 05:09:52;;;;;;;23.23;15.73;;;11.30;99.90;;;;;;4948181;29;20433;-68
2022/06/02 05:12:21;;;;;;;26.03;16.90;;;11.40;99.90;;;;;;4947637;29;20957;-68
2022/06/02 05:15:26;;;;;;;22.60;17.10;;;11.50;99.90;;;;;;4943819;29;20438;-68
2022/06/02 05:18:30;;;;;;;27.13;19.03;;;11.60;99.90;;;;;;4931351;29;20964;-69
2022/06/02 05:21:29;;;;;;;30.00;19.63;;;11.70;99.90;;;;;;4942533;29;20430;-69
2022/06/02 05:24:06;;;;;;;28.63;20.90;;;11.80;99.90;;;;;;4942308;29;20517;-69
2022/06/02 05:26:43;;;;;;;28.00;19.43;;;11.90;99.90;;;;;;4945706;29;20441;-67
2022/06/02 05:29:21;;;;;;;28.30;21.53;;;12.10;99.90;;;;;;4944851;29;20440;-67
2022/06/02 05:31:57;;;;;;;31.53;22.90;;;12.20;99.90;;;;;;4943892;29;20477;-69
2022/06/02 05:34:42;;;;;;;32.07;21.53;;;12.30;99.90;;;;;;4945499;29;20437;-69
2022/06/02 05:38:00;;;;;;;28.43;21.40;;;12.50;99.90;;;;;;4929315;29;20498;-69
2022/06/02 05:40:42;;;;;;;27.03;19.30;;;12.60;99.90;;;;;;4885026;29;20450;-69
2022/06/02 05:43:10;;;;;;;27.10;20.50;;;12.70;99.90;;;;;;4928534;29;20442;-68
2022/06/02 05:46:05;;;;;;;26.57;19.87;;;12.80;99.90;;;;;;4937332;29;20430;-68
2022/06/02 05:49:07;;;;;;;24.87;18.77;;;13.00;99.90;;;;;;4935073;29;20434;-68
2022/06/02 05:51:48;;;;;;;27.50;19.73;;;13.10;99.90;;;;;;4937147;29;20430;-68
2022/06/02 05:54:32;;;;;;;28.17;19.53;;;13.30;99.90;;;;;;4937990;29;20434;-69
2022/06/02 05:57:31;;;;;;;28.03;19.10;;;13.40;99.90;;;;;;4937958;29;20941;-69
2022/06/02 06:00:05;;;;;;;25.80;18.00;;;13.50;99.90;;;;;;4938078;29;20434;-68
2022/06/02 06:02:48;;;;;;;25.93;19.70;;;13.50;99.90;;;;;;4937944;29;20993;-69
2022/06/02 06:05:42;;;;;;;24.60;17.37;;;13.60;99.90;;;;;;4938088;29;20434;-68
2022/06/02 06:08:37;;;;;;;23.83;16.80;;;13.70;99.90;;;;;;4938041;29;20534;-68
2022/06/02 06:11:27;;;;;;;18.23;15.30;;;13.80;99.90;;;;;;4938039;29;20474;-69
2022/06/02 06:14:12;;;;;;;15.60;12.97;;;13.90;99.90;;;;;;4937787;29;20981;-68
2022/06/02 06:16:48;;;;;;;22.17;14.90;;;13.90;99.90;;;;;;4937590;29;20431;-69
2022/06/02 06:19:37;;;;;;;15.77;12.93;;;14.00;99.90;;;;;;4937645;29;20973;-66
2022/06/02 06:22:27;;;;;;;16.47;13.17;;;14.10;99.90;;;;;;4939414;29;20450;-67
2022/06/02 06:25:19;;;;;;;22.97;15.57;;;14.30;99.90;;;;;;4943685;29;20518;-67
2022/06/02 06:28:06;;;;;;;11.53;9.63;;;14.60;99.90;;;;;;4943663;29;20553;-69
2022/06/02 06:30:57;;;;;;;15.63;12.63;;;14.70;99.90;;;;;;4942026;29;20513;-68
2022/06/02 06:33:41;;;;;;;18.97;13.97;;;14.90;99.90;;;;;;4944836;29;20438;-66
2022/06/02 06:36:22;;;;;;;13.57;11.20;;;14.90;99.90;;;;;;4945898;29;20422;-66
2022/06/02 06:39:04;;;;;;;13.80;10.47;;;14.90;99.90;;;;;;4945939;29;20481;-66
2022/06/02 06:41:51;;;;;;;17.27;10.90;;;15.00;99.90;;;;;;4946449;29;20609;-66
2022/06/02 06:44:21;;;;;;;15.83;11.50;;;15.00;99.90;;;;;;4943222;29;20438;-66
2022/06/02 06:47:06;;;;;;;14.53;11.00;;;15.00;99.90;;;;;;4944404;28;20431;-66
2022/06/02 06:50:11;;;;;;;10.20;9.00;;;15.00;99.90;;;;;;4944084;28;20434;-66
2022/06/02 06:53:00;;;;;;;14.63;11.63;;;15.10;99.90;;;;;;4937767;29;20478;-66
2022/06/02 06:55:48;;;;;;;11.10;8.63;;;15.10;99.90;;;;;;4936373;29;20524;-65
2022/06/02 06:58:46;;;;;;;11.70;9.87;;;15.10;99.90;;;;;;4935013;29;20836;-66
2022/06/02 07:02:00;;;;;;;10.63;9.53;;;15.20;99.90;;;;;;4944046;29;20434;-66
2022/06/02 07:04:44;;;;;;;16.87;10.80;;;15.30;99.90;;;;;;4942688;29;20427;-66
2022/06/02 07:07:31;;;;;;;12.67;10.37;;;15.20;99.90;;;;;;4943969;29;20423;-67
2022/06/02 07:10:05;;;;;;;11.10;9.47;;;15.20;99.90;;;;;;4945358;29;20433;-66
2022/06/02 07:12:52;;;;;;;7.57;6.63;;;15.20;99.90;;;;;;4945185;29;20439;-66
2022/06/02 07:15:37;;;;;;;11.73;9.33;;;15.20;99.90;;;;;;4945472;29;20992;-66
2022/06/02 07:18:27;;;;;;;12.30;8.73;;;15.10;99.90;;;;;;4941834;29;20471;-67
2022/06/02 07:21:11;;;;;;;12.70;9.37;;;15.00;99.90;;;;;;4944374;29;20449;-67
2022/06/02 07:24:09;;;;;;;11.30;8.13;;;15.00;99.90;;;;;;4945134;29;20430;-66
2022/06/02 07:27:12;;;;;;;8.30;7.50;;;15.10;99.90;;;;;;4944629;29;20438;-67
2022/06/02 07:29:38;;;;;;;8.23;6.90;;;15.20;99.90;;;;;;4942874;29;20841;-67
2022/06/02 07:32:15;;;;;;;6.70;5.70;;;15.30;99.90;;;;;;4943713;29;20488;-66
2022/06/02 07:34:55;;;;;;;10.50;7.20;;;15.50;99.90;;;;;;4943452;29;20238;-66
2022/06/02 07:37:42;;;;;;;11.77;7.83;;;15.60;99.90;;;;;;4943534;29;20829;-66
2022/06/02 07:40:39;;;;;;;10.30;5.77;;;15.80;99.90;;;;;;4943613;29;20454;-66
2022/06/02 07:43:26;;;;;;;8.40;6.23;;;16.00;99.90;;;;;;4944437;29;20538;-66
2022/06/02 07:45:55;;;;;;;10.80;8.30;;;16.50;99.90;;;;;;4946380;29;20500;-66
2022/06/02 07:49:17;;;;;;;10.17;8.27;;;16.40;99.90;;;;;;4941107;29;20442;-66
2022/06/02 07:51:43;;;;;;;14.37;8.10;;;15.90;99.90;;;;;;4850218;29;20436;-66
2022/06/02 07:54:38;;;;;;;9.27;7.97;;;16.30;99.90;;;;;;4850015;29;20427;-66
2022/06/02 07:57:14;;;;;;;8.73;7.93;;;16.10;99.90;;;;;;4914035;29;20284;-66
2022/06/02 07:59:58;;;;;;;11.80;7.20;;;16.20;99.90;;;;;;4950193;29;20569;-66
2022/06/02 08:02:33;;;;;;;12.10;7.70;;;16.40;99.90;;;;;;4954267;29;20422;-67
2022/06/02 08:05:23;;;;;;;11.60;7.20;;;16.40;99.90;;;;;;4937524;29;20469;-66
2022/06/02 08:07:59;;;;;;;6.63;5.97;;;16.50;99.90;;;;;;4934372;29;20832;-66
2022/06/02 08:10:31;;;;;;;6.37;5.77;;;16.70;99.90;;;;;;4934876;29;20493;-66
2022/06/02 08:13:19;;;;;;;6.67;5.60;;;16.90;99.90;;;;;;4935041;29;20575;-66
2022/06/02 08:15:57;;;;;;;5.87;5.27;;;17.10;99.90;;;;;;4934804;29;20928;-66
2022/06/02 08:18:36;;;;;;;4.73;4.33;;;16.90;99.90;;;;;;4934383;29;20474;-66
2022/06/02 08:21:15;;;;;;;5.80;4.73;;;16.90;99.90;;;;;;4939995;29;20461;-66
2022/06/02 08:23:55;;;;;;;6.90;5.07;;;16.80;99.90;;;;;;4936347;29;20530;-66
2022/06/02 08:26:34;;;;;;;5.77;4.60;;;16.60;99.90;;;;;;4937279;29;20478;-67
2022/06/02 08:29:22;;;;;;;4.83;4.07;;;16.50;99.90;;;;;;4940389;29;20466;-67
2022/06/02 08:32:04;;;;;;;5.40;4.60;;;16.40;99.90;;;;;;4941483;29;20529;-70
2022/06/02 08:34:49;;;;;;;5.03;3.90;;;16.50;99.90;;;;;;4940056;29;20782;-69
2022/06/02 08:37:26;;;;;;;4.63;3.90;;;16.70;99.90;;;;;;4944271;29;20842;-69
2022/06/02 08:40:19;;;;;;;3.90;3.50;;;16.90;99.90;;;;;;4942618;29;20477;-69
2022/06/02 08:43:23;;;;;;;7.23;4.60;;;17.10;99.90;;;;;;4941992;29;20453;-67
2022/06/02 08:46:18;;;;;;;5.00;4.07;;;17.20;99.90;;;;;;4939777;28;20423;-67
2022/06/02 08:49:04;;;;;;;4.33;4.00;;;17.30;99.90;;;;;;4940177;29;20426;-67
2022/06/02 08:51:47;;;;;;;5.43;3.77;;;17.50;99.90;;;;;;4943625;29;20572;-68
2022/06/02 08:55:03;;;;;;;5.67;4.67;;;17.60;99.90;;;;;;4942833;29;20450;-67
2022/06/02 08:57:28;;;;;;;4.70;4.30;;;17.70;99.90;;;;;;4916751;28;20469;-67
2022/06/02 09:00:02;;;;;;;4.07;3.70;;;17.80;99.90;;;;;;4942667;29;20478;-67
2022/06/02 09:02:42;;;;;;;4.83;3.80;;;17.70;99.90;;;;;;4941508;29;20182;-67
2022/06/02 09:05:42;;;;;;;5.33;4.20;;;17.70;99.90;;;;;;4941473;29;20431;-74
2022/06/02 09:08:25;;;;;;;4.63;4.10;;;17.60;99.90;;;;;;4941302;29;20423;-73
2022/06/02 09:11:29;;;;;;;5.30;4.80;;;17.40;99.90;;;;;;4942077;29;20457;-73
2022/06/02 09:14:27;;;;;;;5.80;5.20;;;17.30;99.90;;;;;;4942190;29;20462;-74
2022/06/02 09:17:15;;;;;;;4.40;4.00;;;17.20;99.90;;;;;;4889320;29;20443;-75
2022/06/02 09:20:07;;;;;;;4.53;4.13;;;17.10;99.90;;;;;;4935388;29;20584;-73
2022/06/02 09:22:51;;;;;;;5.30;4.73;;;17.00;99.90;;;;;;4953635;28;20430;-67
2022/06/02 09:25:31;;;;;;;5.60;5.10;;;16.90;99.90;;;;;;4950868;29;20462;-68
2022/06/02 09:28:24;;;;;;;5.40;4.40;;;16.80;99.90;;;;;;4937810;29;20426;-68
2022/06/02 09:31:31;;;;;;;5.23;4.70;;;16.70;99.90;;;;;;4937532;29;20465;-68
2022/06/02 09:34:19;;;;;;;7.93;4.47;;;16.70;99.90;;;;;;4942550;29;20431;-69
2022/06/02 09:37:04;;;;;;;4.50;4.20;;;16.60;99.90;;;;;;4941305;29;20804;-69
2022/06/02 09:39:49;;;;;;;5.33;4.17;;;16.70;99.90;;;;;;4941884;29;20842;-69
2022/06/02 09:42:34;;;;;;;9.37;4.67;;;16.80;99.90;;;;;;4918398;29;20442;-68
2022/06/02 09:45:28;;;;;;;4.60;3.60;;;16.90;99.90;;;;;;4918475;29;20440;-68
2022/06/02 09:48:03;;;;;;;5.00;4.30;;;17.00;99.90;;;;;;4918288;29;20480;-68
2022/06/02 09:51:01;;;;;;;5.47;4.40;;;17.00;99.90;;;;;;4935437;29;20437;-69
2022/06/02 09:53:39;;;;;;;4.90;4.23;;;17.20;99.90;;;;;;4935397;29;20439;-68
2022/06/02 09:56:27;;;;;;;4.67;4.17;;;17.10;99.90;;;;;;4937230;29;20446;-69
2022/06/02 09:58:53;;;;;;;4.20;3.80;;;17.20;99.90;;;;;;4936512;29;20585;-68
2022/06/02 10:01:39;;;;;;;4.60;4.13;;;17.40;99.90;;;;;;4937263;29;20566;-69
2022/06/02 10:04:08;;;;;;;5.50;3.57;;;17.50;99.90;;;;;;4937203;29;20422;-68
2022/06/02 10:07:12;;;;;;;3.40;2.80;;;17.70;99.90;;;;;;4936935;29;20415;-69
2022/06/02 10:09:54;;;;;;;6.67;3.57;;;17.90;99.90;;;;;;4921202;29;20516;-69
2022/06/02 10:12:54;;;;;;;3.53;3.23;;;17.90;99.90;;;;;;4937050;29;20830;-69
2022/06/02 10:15:29;;;;;;;4.30;3.73;;;18.00;99.90;;;;;;4937050;29;20453;-69
2022/06/02 10:18:03;;;;;;;4.40;3.00;;;18.10;99.90;;;;;;4936558;29;20561;-69
2022/06/02 10:20:49;;;;;;;3.10;2.90;;;18.20;99.90;;;;;;4939939;29;20802;-69
2022/06/02 10:23:44;;;;;;;6.73;3.07;;;18.30;99.90;;;;;;4937136;29;20427;-67
2022/06/02 10:27:04;;;;;;;7.07;3.70;;;18.10;98.30;;;;;;4926579;29;20937;-67
2022/06/02 10:29:56;;;;;;;4.20;3.73;;;18.10;99.90;;;;;;4923423;29;20463;-68
2022/06/02 10:32:28;;;;;;;3.53;3.23;;;18.20;99.90;;;;;;4944006;28;20479;-67
2022/06/02 10:35:11;;;;;;;4.50;4.10;;;18.20;99.90;;;;;;4942984;29;20467;-67
2022/06/02 10:38:00;;;;;;;4.30;3.57;;;18.20;99.90;;;;;;4944008;29;20867;-67
2022/06/02 10:40:40;;;;;;;3.90;3.60;;;18.30;99.20;;;;;;4948935;29;20474;-69
2022/06/02 10:43:40;;;;;;;4.13;3.73;;;18.30;97.10;;;;;;4955676;29;20827;-68
2022/06/02 10:46:58;;;;;;;4.07;3.77;;;18.30;96.80;;;;;;4947702;29;20443;-69
2022/06/02 10:49:38;;;;;;;3.30;3.00;;;18.10;98.70;;;;;;4885809;29;20455;-69
2022/06/02 10:52:43;;;;;;;2.90;2.70;;;17.80;99.90;;;;;;4886634;29;20445;-68
2022/06/02 10:55:45;;;;;;;3.53;3.23;;;17.60;99.90;;;;;;4936612;29;20864;-69
2022/06/02 10:58:29;;;;;;;2.87;2.60;;;17.70;99.90;;;;;;4941766;29;20537;-69
2022/06/02 11:01:09;;;;;;;4.90;3.30;;;17.80;99.90;;;;;;4943413;29;20418;-69
2022/06/02 11:04:13;;;;;;;3.57;3.27;;;17.90;99.90;;;;;;4943546;29;20837;-68
2022/06/02 11:07:12;;;;;;;6.80;3.40;;;17.70;99.90;;;;;;4944292;29;20431;-69
2022/06/02 11:10:12;;;;;;;4.77;4.37;;;17.80;99.90;;;;;;4944136;29;20419;-70
2022/06/02 11:13:03;;;;;;;3.27;2.97;;;17.90;99.90;;;;;;4943077;29;20490;-70
2022/06/02 11:16:00;;;;;;;3.70;3.40;;;17.90;99.90;;;;;;4945629;29;20430;-69
2022/06/02 11:19:08;;;;;;;5.27;4.27;;;17.70;99.90;;;;;;4940845;29;20588;-70
2022/06/02 11:22:09;;;;;;;5.73;5.20;;;17.80;99.90;;;;;;4946380;29;20480;-69
2022/06/02 11:24:40;;;;;;;10.50;6.33;;;17.80;99.90;;;;;;4945764;29;20426;-70
2022/06/02 11:28:00;;;;;;;6.40;5.77;;;17.90;99.90;;;;;;4944746;29;20470;-68
2022/06/02 11:31:16;;;;;;;6.60;5.60;;;18.20;99.90;;;;;;4883917;29;20566;-68
2022/06/02 11:34:17;;;;;;;7.17;6.67;;;18.50;99.90;;;;;;4899285;29;20451;-68
2022/06/02 11:36:48;;;;;;;5.83;5.33;;;18.80;99.90;;;;;;4942083;29;20506;-68
2022/06/02 11:39:46;;;;;;;7.03;6.07;;;19.00;99.90;;;;;;4943396;29;20510;-68
2022/06/02 11:42:42;;;;;;;7.10;6.00;;;19.00;99.90;;;;;;4944328;28;20463;-69
2022/06/02 11:45:49;;;;;;;7.57;6.87;;;19.10;98.20;;;;;;4943504;29;20427;-68
2022/06/02 11:48:26;;;;;;;6.03;5.53;;;19.00;94.80;;;;;;4884430;29;20448;-68
2022/06/02 11:51:04;;;;;;;5.73;5.23;;;19.20;95.80;;;;;;4938391;29;20766;-68
2022/06/02 11:53:42;;;;;;;5.20;4.60;;;19.40;94.40;;;;;;4942206;29;20445;-68
2022/06/02 11:56:30;;;;;;;4.33;4.00;;;19.60;95.10;;;;;;4943253;29;20506;-68
2022/06/02 11:59:23;;;;;;;4.53;4.13;;;19.90;95.10;;;;;;4944820;29;20485;-68
2022/06/02 12:02:22;;;;;;;7.27;4.73;;;19.90;94.80;;;;;;4943320;29;20423;-68
2022/06/02 12:05:12;;;;;;;4.40;4.10;;;20.00;91.40;;;;;;4945606;29;20442;-69
2022/06/02 12:08:02;;;;;;;5.47;4.70;;;20.20;94.70;;;;;;4952265;29;20457;-70
2022/06/02 12:10:56;;;;;;;4.80;3.93;;;20.10;91.00;;;;;;4953307;28;20430;-69
2022/06/02 12:13:30;;;;;;;7.83;6.43;;;20.20;94.10;;;;;;4953886;28;20425;-71
2022/06/02 12:16:17;;;;;;;6.37;5.87;;;20.30;93.60;;;;;;4953377;29;20846;-70
2022/06/02 12:19:01;;;;;;;6.60;5.40;;;20.60;92.10;;;;;;4953900;29;20480;-66
2022/06/02 12:21:56;;;;;;;6.60;6.00;;;20.70;87.30;;;;;;4954000;29;20418;-66
2022/06/02 12:24:56;;;;;;;6.23;5.73;;;20.50;88.50;;;;;;4953835;29;20944;-67
2022/06/02 12:27:36;;;;;;;7.37;6.57;;;20.30;85.40;;;;;;4954036;28;20829;-66
2022/06/02 12:30:11;;;;;;;7.57;6.97;;;20.30;85.40;;;;;;4953968;29;20850;-67
2022/06/02 12:33:06;;;;;;;8.80;7.17;;;20.20;85.00;;;;;;4953465;29;20472;-66
2022/06/02 12:35:59;;;;;;;6.37;5.83;;;20.10;83.00;;;;;;4953391;29;20422;-71
2022/06/02 12:38:33;;;;;;;8.30;7.50;;;19.90;85.80;;;;;;4953724;28;20470;-71
2022/06/02 12:41:25;;;;;;;7.60;6.90;;;19.50;81.40;;;;;;4953970;29;20441;-70
2022/06/02 12:44:09;;;;;;;7.60;6.20;;;19.60;80.80;;;;;;4953876;29;20429;-71
2022/06/02 12:47:12;;;;;;;6.97;6.37;;;19.40;82.60;;;;;;4953583;29;20541;-72
2022/06/02 12:50:13;;;;;;;6.30;5.70;;;19.50;81.10;;;;;;4953720;28;20461;-71
2022/06/02 12:52:44;;;;;;;7.20;6.00;;;19.60;90.10;;;;;;4953630;29;20439;-72
2022/06/02 12:55:35;;;;;;;7.00;6.43;;;19.80;86.50;;;;;;4955206;28;20430;-72
2022/06/02 12:58:38;;;;;;;6.87;6.27;;;20.00;83.70;;;;;;4957494;29;20465;-72
2022/06/02 13:01:14;;;;;;;7.00;6.30;;;20.10;82.20;;;;;;4957487;28;20460;-72
2022/06/02 13:03:58;;;;;;;6.37;5.83;;;20.40;83.80;;;;;;4957363;29;20422;-72
2022/06/02 13:07:00;;;;;;;6.70;6.10;;;20.50;78.30;;;;;;4957322;28;20425;-72
2022/06/02 13:09:30;;;;;;;6.50;6.00;;;20.40;82.60;;;;;;4957048;29;20442;-69
2022/06/02 13:12:17;;;;;;;7.80;7.10;;;20.50;81.40;;;;;;4957063;29;20426;-71
2022/06/02 13:15:16;;;;;;;9.20;7.57;;;20.50;78.10;;;;;;4957073;29;20430;-69
2022/06/02 13:18:01;;;;;;;7.43;6.50;;;20.60;77.60;;;;;;4953682;29;20449;-69
2022/06/02 13:21:03;;;;;;;7.07;6.47;;;20.20;75.40;;;;;;4944233;29;20521;-69
2022/06/02 13:23:41;;;;;;;6.20;5.23;;;20.30;75.00;;;;;;4946348;29;20809;-67
2022/06/02 13:26:13;;;;;;;6.23;5.73;;;20.30;78.70;;;;;;4943661;29;20439;-68
2022/06/02 13:29:10;;;;;;;5.43;5.03;;;20.30;80.30;;;;;;4950145;29;20887;-68
2022/06/02 13:32:30;;;;;;;6.27;5.77;;;20.50;81.90;;;;;;4926075;28;20488;-68
2022/06/02 13:35:14;;;;;;;5.77;5.27;;;20.70;81.70;;;;;;4924949;29;20439;-67
2022/06/02 13:37:54;;;;;;;7.93;5.77;;;20.90;86.20;;;;;;4943880;29;20470;-68
2022/06/02 13:40:29;;;;;;;5.13;4.50;;;21.10;83.30;;;;;;4945769;29;20986;-68
2022/06/02 13:43:06;;;;;;;5.63;5.10;;;21.30;80.10;;;;;;4946155;29;20425;-68
2022/06/02 13:45:35;;;;;;;4.70;4.30;;;21.20;75.30;;;;;;4945186;29;20494;-68
2022/06/02 13:48:04;;;;;;;5.30;4.90;;;21.30;77.50;;;;;;4945558;29;20434;-67
2022/06/02 13:50:58;;;;;;;5.70;5.27;;;21.60;71.50;;;;;;4946811;29;20550;-67
2022/06/02 13:57:38;;;;;;;5.53;5.03;;;21.80;67.50;;;;;;4947099;29;20440;-69
2022/06/02 14:00:25;;;;;;;5.30;4.90;;;21.80;65.60;;;;;;4947458;28;20442;-68
2022/06/02 14:03:18;;;;;;;7.27;5.63;;;21.80;69.60;;;;;;4944320;29;20466;-68
2022/06/02 14:06:05;;;;;;;5.30;4.90;;;21.90;60.90;;;;;;4947124;29;20445;-68
2022/06/02 14:08:49;;;;;;;5.70;5.20;;;21.90;60.20;;;;;;4936985;29;20493;-67
2022/06/02 14:11:32;;;;;;;6.23;4.50;;;21.80;59.80;;;;;;4937251;29;20953;-68
2022/06/02 14:14:35;;;;;;;3.53;3.30;;;21.80;60.40;;;;;;4937099;29;20526;-68
2022/06/02 14:17:28;;;;;;;2.87;2.53;;;21.70;63.20;;;;;;4936985;29;20593;-67
2022/06/02 14:20:05;;;;;;;2.57;2.37;;;21.80;61.10;;;;;;4936799;29;20485;-67
2022/06/02 14:22:58;;;;;;;2.50;2.30;;;21.90;60.30;;;;;;4936298;29;20482;-68
2022/06/02 14:25:43;;;;;;;3.10;2.60;;;21.90;60.60;;;;;;4936585;29;20427;-68
2022/06/02 14:28:34;;;;;;;2.40;2.30;;;21.50;62.20;;;;;;4936829;29;20424;-68
2022/06/02 14:31:08;;;;;;;3.37;3.07;;;21.60;61.80;;;;;;4936646;29;20463;-67
2022/06/02 14:33:39;;;;;;;2.70;2.50;;;21.60;66.70;;;;;;4936459;29;20442;-68
2022/06/02 14:36:40;;;;;;;3.77;2.73;;;21.80;62.30;;;;;;4936590;29;20423;-67
2022/06/02 14:39:29;;;;;;;2.30;2.20;;;21.70;59.90;;;;;;4936531;29;20509;-68
2022/06/02 14:45:26;;;;;;;2.40;2.20;;;21.80;60.80;;;;;;4936516;29;20545;-68
2022/06/02 14:48:03;;;;;;;4.67;3.13;;;21.70;61.30;;;;;;4936296;29;20421;-68
2022/06/02 14:50:33;;;;;;;3.20;2.90;;;21.70;56.90;;;;;;4936346;29;20509;-68
2022/06/02 14:53:17;;;;;;;2.77;2.57;;;21.70;58.70;;;;;;4942528;29;20426;-68
2022/06/02 14:56:34;;;;;;;3.63;3.33;;;21.80;57.90;;;;;;4932263;29;20489;-72
2022/06/02 14:59:40;;;;;;;2.20;2.03;;;21.90;56.00;;;;;;4926695;29;20943;-72
2022/06/02 15:02:43;;;;;;;4.10;2.83;;;21.60;56.30;;;;;;4934371;29;20437;-73
2022/06/02 15:05:21;;;;;;;3.20;2.40;;;21.50;56.10;;;;;;4936140;29;20513;-73
2022/06/02 15:08:11;;;;;;;3.23;1.97;;;21.50;61.10;;;;;;4935980;29;20434;-72
2022/06/02 15:11:05;;;;;;;2.40;2.20;;;21.40;59.90;;;;;;4936059;29;20796;-72
2022/06/02 15:13:46;;;;;;;2.50;2.37;;;21.50;61.40;;;;;;4935818;29;20426;-72
2022/06/02 15:16:39;;;;;;;4.03;2.43;;;21.50;57.30;;;;;;4935735;29;21002;-71
2022/06/02 15:19:17;;;;;;;2.70;2.50;;;21.80;56.00;;;;;;4935277;29;20484;-71
2022/06/02 15:22:08;;;;;;;2.53;2.20;;;21.80;57.40;;;;;;4935803;29;20883;-71
2022/06/02 15:25:02;;;;;;;4.90;1.70;;;21.70;57.90;;;;;;4935448;29;20427;-72
2022/06/02 15:27:34;;;;;;;5.03;2.00;;;21.50;57.40;;;;;;4934020;29;20506;-72
2022/06/02 15:30:08;;;;;;;2.17;2.00;;;21.70;58.00;;;;;;4934264;29;20427;-72
2022/06/02 15:33:11;;;;;;;1.97;1.87;;;21.90;57.80;;;;;;4935311;29;20470;-72
2022/06/02 15:35:52;;;;;;;1.90;1.80;;;22.10;56.50;;;;;;4935370;29;20455;-72
2022/06/02 15:39:11;;;;;;;2.60;2.40;;;22.00;57.40;;;;;;4935485;29;20475;-72
2022/06/02 15:41:52;;;;;;;3.03;2.23;;;22.00;58.20;;;;;;4934477;29;20464;-72
2022/06/02 15:44:20;;;;;;;2.50;2.30;;;21.90;59.90;;;;;;4935364;29;20706;-71
2022/06/02 15:47:15;;;;;;;5.03;2.23;;;21.90;59.00;;;;;;4935211;29;20422;-71
2022/06/02 15:50:12;;;;;;;2.50;2.17;;;21.90;57.00;;;;;;4935169;29;20470;-72
2022/06/02 15:53:05;;;;;;;3.80;2.80;;;21.80;56.50;;;;;;4934034;29;20423;-72
2022/06/02 15:55:49;;;;;;;3.00;2.70;;;21.80;56.80;;;;;;4935120;29;20853;-72
2022/06/02 15:58:36;;;;;;;3.17;2.70;;;21.80;55.80;;;;;;4935099;29;20478;-73
2022/06/02 16:01:34;;;;;;;2.57;2.37;;;21.80;55.80;;;;;;4935254;29;20422;-73
2022/06/02 16:04:25;;;;;;;2.17;2.07;;;21.70;56.50;;;;;;4935179;29;20485;-73
2022/06/02 16:07:13;;;;;;;2.63;2.40;;;21.50;58.80;;;;;;4934963;29;20543;-73
2022/06/02 16:13:18;;;;;;;3.80;2.40;;;21.50;59.80;;;;;;4935027;29;20840;-74
2022/06/02 16:16:07;;;;;;;4.63;2.23;;;21.60;61.90;;;;;;4934914;29;20813;-72
2022/06/02 16:19:11;;;;;;;4.60;2.43;;;21.70;59.00;;;;;;4934747;29;20478;-71
2022/06/02 16:22:02;;;;;;;1.93;1.77;;;21.80;55.60;;;;;;4934914;29;20800;-71
2022/06/02 16:25:09;;;;;;;3.40;2.30;;;21.70;58.90;;;;;;4934759;29;20427;-71
2022/06/02 16:28:10;;;;;;;4.00;2.20;;;21.70;57.50;;;;;;4934769;29;20477;-71
2022/06/02 16:30:41;;;;;;;2.67;2.47;;;21.50;58.00;;;;;;4927990;29;20468;-71
2022/06/02 16:33:18;;;;;;;2.50;2.30;;;21.40;57.60;;;;;;4938692;29;20438;-71
2022/06/02 16:36:31;;;;;;;2.10;2.00;;;21.50;57.40;;;;;;4938691;29;20833;-71
2022/06/02 16:39:20;;;;;;;2.13;1.93;;;21.50;56.10;;;;;;4938846;29;20475;-73
2022/06/02 16:42:01;;;;;;;2.83;1.90;;;21.50;56.90;;;;;;4938676;29;20917;-73
2022/06/02 16:44:50;;;;;;;2.23;1.83;;;21.40;57.90;;;;;;4939678;29;20439;-68
2022/06/02 16:47:49;;;;;;;8.60;1.83;;;21.40;56.90;;;;;;4945019;29;20423;-69
2022/06/02 16:50:38;;;;;;;2.20;1.90;;;21.50;56.90;;;;;;4944670;29;20825;-69
2022/06/02 16:53:54;;;;;;;2.00;1.83;;;21.50;56.70;;;;;;4947024;29;20434;-70
2022/06/02 16:56:35;;;;;;;2.67;1.80;;;21.50;57.80;;;;;;4915922;29;20435;-70
2022/06/02 16:59:13;;;;;;;2.27;2.03;;;21.30;57.20;;;;;;4938383;29;20571;-69
2022/06/02 17:01:44;;;;;;;2.93;2.00;;;21.30;55.90;;;;;;4938296;29;20427;-68
2022/06/02 17:04:28;;;;;;;3.37;1.97;;;21.40;56.50;;;;;;4938200;29;20431;-69
2022/06/02 17:07:04;;;;;;;1.97;1.80;;;21.30;56.50;;;;;;4938087;29;20529;-70
2022/06/02 17:09:42;;;;;;;2.63;2.43;;;21.40;55.70;;;;;;4938540;29;20426;-68
2022/06/02 17:12:32;;;;;;;2.03;1.90;;;21.40;54.90;;;;;;4941033;29;20431;-67
2022/06/02 17:15:30;;;;;;;2.40;2.20;;;21.30;55.30;;;;;;4938085;29;20438;-68
2022/06/02 17:17:58;;;;;;;2.20;2.00;;;21.30;55.40;;;;;;4936752;29;20447;-68
2022/06/02 17:20:29;;;;;;;2.30;1.67;;;21.30;55.80;;;;;;4937947;29;20818;-70
2022/06/02 17:23:04;;;;;;;3.37;2.40;;;21.10;56.30;;;;;;4939440;29;20431;-69
2022/06/02 17:25:50;;;;;;;2.40;2.20;;;21.10;56.00;;;;;;4945533;29;20472;-68
2022/06/02 17:28:57;;;;;;;2.80;1.90;;;21.10;55.30;;;;;;4956895;29;20432;-68
2022/06/02 17:31:34;;;;;;;4.87;2.00;;;21.10;55.60;;;;;;4956473;28;20497;-72
2022/06/02 17:34:22;;;;;;;3.30;1.77;;;20.80;56.60;;;;;;4948227;29;20434;-70
2022/06/02 17:37:21;;;;;;;4.70;1.93;;;20.70;57.10;;;;;;4945182;29;20221;-69
2022/06/02 17:40:03;;;;;;;2.30;2.03;;;20.70;58.20;;;;;;4921783;29;20570;-70
2022/06/02 17:42:59;;;;;;;2.00;1.80;;;20.80;57.50;;;;;;4940033;29;20430;-70
2022/06/02 17:45:44;;;;;;;2.70;1.90;;;20.70;57.80;;;;;;4945721;29;20453;-71
2022/06/02 17:48:24;;;;;;;3.10;2.17;;;20.70;57.60;;;;;;4946412;29;20430;-70
2022/06/02 17:51:15;;;;;;;1.77;1.57;;;20.70;57.60;;;;;;4946397;29;20435;-68
2022/06/02 17:54:02;;;;;;;3.05;1.77;;;20.60;57.80;;;;;;4951395;29;20868;-74
2022/06/02 17:56:57;;;;;;;2.00;1.70;;;20.60;59.70;;;;;;4956316;29;20186;-76
2022/06/02 18:00:00;;;;;;;2.40;1.50;;;20.50;58.60;;;;;;4951566;29;21019;-73
2022/06/02 18:02:46;;;;;;;3.17;2.07;;;20.30;59.10;;;;;;4945326;29;20486;-74
2022/06/02 18:05:36;;;;;;;2.10;2.00;;;20.20;58.70;;;;;;4946403;29;20437;-76
2022/06/02 18:08:06;;;;;;;2.60;1.73;;;20.10;58.70;;;;;;4937226;29;20435;-71
2022/06/02 18:10:31;;;;;;;2.07;1.90;;;20.10;58.70;;;;;;4936940;29;20917;-71
2022/06/02 18:13:35;;;;;;;2.27;2.03;;;20.20;59.20;;;;;;4936548;29;20505;-71
2022/06/02 18:16:37;;;;;;;3.77;2.43;;;20.10;60.20;;;;;;4936110;29;20711;-73
2022/06/02 18:19:18;;;;;;;2.57;2.37;;;20.00;61.40;;;;;;4942380;29;20482;-72
2022/06/02 18:22:13;;;;;;;2.73;2.20;;;20.00;61.10;;;;;;4944354;29;20427;-69
2022/06/02 18:25:11;;;;;;;2.93;2.63;;;19.90;62.40;;;;;;4945717;29;20427;-69
2022/06/02 18:28:03;;;;;;;3.00;2.80;;;19.70;61.50;;;;;;4945511;29;20835;-69
2022/06/02 18:30:31;;;;;;;4.13;2.97;;;19.70;61.30;;;;;;4938375;29;20431;-68
2022/06/02 18:33:13;;;;;;;5.50;3.23;;;19.70;59.90;;;;;;4943949;29;20445;-67
2022/06/02 18:35:38;;;;;;;3.40;3.10;;;19.70;61.30;;;;;;4942017;29;20459;-68
2022/06/02 18:38:26;;;;;;;3.27;3.07;;;19.60;60.60;;;;;;4943819;29;20515;-69
2022/06/02 18:41:04;;;;;;;3.70;3.07;;;19.50;60.10;;;;;;4940271;29;20408;-67
2022/06/02 18:43:51;;;;;;;3.07;2.87;;;19.40;60.60;;;;;;4936338;29;20418;-68
2022/06/02 18:46:48;;;;;;;3.23;2.93;;;19.40;60.30;;;;;;4936467;29;20457;-68
2022/06/02 18:49:52;;;;;;;3.23;3.00;;;19.30;61.00;;;;;;4967424;28;20450;-68
2022/06/02 18:52:53;;;;;;;2.80;2.60;;;19.30;61.70;;;;;;4935742;29;20522;-68
2022/06/02 18:55:43;;;;;;;2.27;2.10;;;19.30;61.90;;;;;;4940366;29;20422;-68
2022/06/02 18:58:47;;;;;;;2.83;2.63;;;19.20;62.70;;;;;;4941974;29;20439;-68
2022/06/02 19:01:43;;;;;;;2.40;2.17;;;19.10;63.60;;;;;;4926044;29;20445;-68
2022/06/02 19:04:48;;;;;;;2.73;2.50;;;19.20;63.50;;;;;;4926102;29;20441;-68
2022/06/02 19:13:48;;;;;;;3.77;2.70;;;18.80;66.90;;;;;;4929165;29;20453;-68
2022/06/02 19:16:37;;;;;;;2.40;2.20;;;18.90;66.30;;;;;;4929446;29;20436;-68